createdAt,value
2022-09-20T00:02:56.889Z,12.27
2022-09-20T00:07:08.443Z,12.28
2022-09-20T00:11:23.246Z,12.20
2022-09-20T00:15:34.894Z,12.09
2022-09-20T00:19:46.444Z,12.02
2022-09-20T00:23:58.163Z,12.09
2022-09-20T00:28:10.770Z,12.07
2022-09-20T00:32:23.538Z,12.10
2022-09-20T00:36:35.017Z,12.08
2022-09-20T00:40:46.550Z,12.11
2022-09-20T00:45:24.552Z,12.07
2022-09-20T00:49:37.834Z,12.01
2022-09-20T00:53:51.594Z,11.99
2022-09-20T00:58:03.351Z,11.94
2022-09-20T01:02:19.701Z,12.07
2022-09-20T01:06:33.197Z,12.13
2022-09-20T01:10:44.984Z,12.20
2022-09-20T01:14:59.125Z,12.21
2022-09-20T01:19:21.632Z,12.20
2022-09-20T01:24:00.245Z,12.32
2022-09-20T01:28:11.899Z,12.24
2022-09-20T01:32:29.789Z,12.22
2022-09-20T01:36:51.365Z,12.28
2022-09-20T01:41:25.351Z,12.31
2022-09-20T01:45:45.085Z,12.31
2022-09-20T01:50:21.169Z,12.29
2022-09-20T01:55:14.657Z,12.36
2022-09-20T01:59:56.108Z,12.27
2022-09-20T02:04:16.683Z,12.20
2022-09-20T02:08:56.133Z,12.24
2022-09-20T02:13:21.047Z,12.19
2022-09-20T02:17:59.424Z,12.17
2022-09-20T02:22:25.087Z,12.14
2022-09-20T02:27:02.274Z,12.20
2022-09-20T02:31:51.493Z,12.20
2022-09-20T02:36:27.884Z,12.28
2022-09-20T02:40:47.244Z,12.21
2022-09-20T02:45:26.175Z,12.27
2022-09-20T02:49:58.161Z,12.27
2022-09-20T02:54:26.015Z,12.15
2022-09-20T02:58:59.327Z,12.30
2022-09-20T03:03:46.786Z,12.26
2022-09-20T03:08:35.947Z,12.30
2022-09-20T03:12:57.270Z,12.30
2022-09-20T03:17:36.551Z,12.29
2022-09-20T03:22:02.071Z,12.14
2022-09-20T03:26:28.739Z,12.10
2022-09-20T03:31:03.627Z,12.09
2022-09-20T03:35:48.298Z,12.09
2022-09-20T03:40:22.984Z,11.97
2022-09-20T03:45:04.018Z,12.03
2022-09-20T03:49:56.561Z,11.93
2022-09-20T03:54:33.124Z,12.02
2022-09-20T03:59:16.935Z,11.98
2022-09-20T04:03:57.580Z,12.05
2022-09-20T04:08:40.576Z,11.99
2022-09-20T04:13:29.430Z,12.02
2022-09-20T04:18:03.678Z,11.94
2022-09-20T04:22:16.229Z,11.69
2022-09-20T04:26:36.203Z,11.60
2022-09-20T04:30:49.672Z,11.56
2022-09-20T04:35:41.893Z,11.48
2022-09-20T04:40:15.099Z,11.34
2022-09-20T04:44:48.841Z,11.34
2022-09-20T04:49:41.660Z,11.27
2022-09-20T04:53:59.309Z,11.37
2022-09-20T04:58:38.982Z,11.42
2022-09-20T05:03:29.534Z,11.35
2022-09-20T05:08:12.264Z,11.51
2022-09-20T05:12:51.619Z,11.43
2022-09-20T05:17:15.795Z,11.61
2022-09-20T05:21:30.767Z,11.65
2022-09-20T05:26:09.295Z,11.73
2022-09-20T05:30:45.593Z,11.74
2022-09-20T05:35:15.492Z,11.78
2022-09-20T05:39:38.916Z,11.75
2022-09-20T05:43:53.261Z,11.78
2022-09-20T05:48:04.712Z,11.80
2022-09-20T05:52:46.882Z,11.71
2022-09-20T05:57:12.081Z,11.50
2022-09-20T06:01:32.690Z,11.59
2022-09-20T06:06:13.265Z,11.75
2022-09-20T06:10:31.091Z,11.96
2022-09-20T06:15:00.055Z,13.00
2022-09-20T06:19:42.506Z,14.73
2022-09-20T06:24:00.186Z,16.17
2022-09-20T06:28:20.986Z,17.46
2022-09-20T06:32:34.713Z,18.25
2022-09-20T06:37:12.737Z,17.85
2022-09-20T06:41:30.547Z,16.87
2022-09-20T06:45:42.872Z,16.13
2022-09-20T06:49:55.329Z,15.55
2022-09-20T06:54:11.381Z,15.24
2022-09-20T06:58:22.930Z,15.06
2022-09-20T07:02:34.493Z,14.95
2022-09-20T07:06:46.073Z,14.98
2022-09-20T07:10:57.752Z,14.84
2022-09-20T07:15:09.877Z,14.41
2022-09-20T07:19:23.369Z,14.10
2022-09-20T07:23:34.955Z,13.98
2022-09-20T07:27:49.737Z,13.91
2022-09-20T07:32:01.541Z,13.90
2022-09-20T07:36:13.257Z,14.03
2022-09-20T07:40:26.505Z,14.16
2022-09-20T07:44:42.253Z,14.40
2022-09-20T07:48:53.791Z,14.61
2022-09-20T07:53:05.347Z,14.94
2022-09-20T07:57:17.040Z,15.59
2022-09-20T08:01:28.775Z,16.16
2022-09-20T08:05:40.958Z,17.06
2022-09-20T08:09:52.522Z,18.50
2022-09-20T08:14:06.257Z,20.02
2022-09-20T08:18:18.420Z,21.00
2022-09-20T08:22:32.092Z,22.11
2022-09-20T08:26:44.107Z,23.24
2022-09-20T08:31:05.888Z,23.88
2022-09-20T08:35:17.620Z,24.56
2022-09-20T08:44:03.461Z,23.08
2022-09-20T08:48:17.344Z,22.69
2022-09-20T08:52:36.938Z,21.83
2022-09-20T08:56:51.028Z,21.11
2022-09-20T09:01:03.514Z,20.46
2022-09-20T09:05:34.440Z,19.86
2022-09-20T09:09:47.357Z,19.46
2022-09-20T09:14:31.838Z,19.17
2022-09-20T09:18:45.732Z,18.59
2022-09-20T09:23:09.099Z,18.34
2022-09-20T09:27:21.391Z,18.08
2022-09-20T09:31:33.600Z,17.89
2022-09-20T09:35:53.228Z,18.01
2022-09-20T09:40:16.540Z,18.21
2022-09-20T09:44:35.503Z,18.43
2022-09-20T09:48:50.140Z,18.64
2022-09-20T09:53:09.667Z,18.75
2022-09-20T09:57:32.981Z,19.00
2022-09-20T10:02:23.329Z,19.38
2022-09-20T10:06:52.375Z,19.67
2022-09-20T10:11:28.527Z,20.45
2022-09-20T10:15:52.118Z,22.16
2022-09-20T10:20:31.212Z,23.20
2022-09-20T10:25:11.579Z,23.65
2022-09-20T10:29:42.525Z,23.20
2022-09-20T10:34:12.779Z,22.97
2022-09-20T10:38:35.845Z,22.53
2022-09-20T10:43:09.732Z,21.96
2022-09-20T10:47:31.468Z,21.35
2022-09-20T10:52:09.253Z,20.94
2022-09-20T10:56:37.521Z,20.69
2022-09-20T11:00:52.711Z,20.68
2022-09-20T11:05:43.428Z,20.27
2022-09-20T11:10:06.275Z,20.22
2022-09-20T11:14:33.437Z,20.49
2022-09-20T11:18:59.251Z,20.58
2022-09-20T11:23:20.984Z,20.58
2022-09-20T11:27:51.712Z,20.69
2022-09-20T11:32:36.618Z,20.69
2022-09-20T11:36:57.575Z,20.58
2022-09-20T11:41:12.196Z,20.37
2022-09-20T11:45:28.309Z,20.47
2022-09-20T11:49:40.092Z,20.24
2022-09-20T11:54:38.094Z,20.27
2022-09-20T11:58:52.027Z,20.29
2022-09-20T12:03:07.970Z,20.99
2022-09-20T12:07:24.977Z,22.00
2022-09-20T12:11:39.216Z,22.61
2022-09-20T12:16:00.473Z,22.85
2022-09-20T12:20:42.315Z,23.15
2022-09-20T12:25:35.855Z,22.84
2022-09-20T12:29:50.721Z,22.39
2022-09-20T12:34:11.743Z,21.63
2022-09-20T12:38:30.363Z,21.20
2022-09-20T12:42:41.951Z,20.92
2022-09-20T12:47:00.757Z,20.69
2022-09-20T12:51:34.140Z,20.51
2022-09-20T12:56:16.138Z,20.59
2022-09-20T13:01:02.061Z,20.83
2022-09-20T13:05:36.190Z,20.96
2022-09-20T13:09:48.310Z,20.86
2022-09-20T13:14:11.952Z,20.98
2022-09-20T13:18:26.168Z,20.53
2022-09-20T13:22:45.355Z,20.17
2022-09-20T13:27:19.342Z,19.72
2022-09-20T13:31:33.725Z,19.24
2022-09-20T13:35:49.887Z,18.85
2022-09-20T13:40:02.663Z,18.80
2022-09-20T13:44:16.928Z,18.89
2022-09-20T13:48:30.218Z,18.91
2022-09-20T13:52:47.114Z,19.03
2022-09-20T13:57:05.055Z,19.11
2022-09-20T14:01:36.778Z,19.24
2022-09-20T14:06:11.813Z,19.29
2022-09-20T14:10:31.626Z,19.42
2022-09-20T14:14:43.895Z,19.53
2022-09-20T14:18:57.808Z,19.42
2022-09-20T14:23:27.537Z,19.24
2022-09-20T14:27:39.288Z,19.10
2022-09-20T14:31:50.850Z,19.13
2022-09-20T14:36:02.366Z,19.30
2022-09-20T14:40:31.996Z,19.45
2022-09-20T14:44:49.687Z,19.74
2022-09-20T14:49:20.336Z,20.08
2022-09-20T14:53:32.581Z,20.20
2022-09-20T14:57:46.113Z,19.83
2022-09-20T15:02:11.439Z,19.56
2022-09-20T15:06:23.453Z,19.23
2022-09-20T15:10:35.060Z,19.05
2022-09-20T15:14:48.238Z,18.96
2022-09-20T15:18:59.857Z,18.77
2022-09-20T15:23:11.404Z,18.62
2022-09-20T15:27:27.543Z,18.45
2022-09-20T15:31:40.300Z,18.17
2022-09-20T15:35:51.880Z,18.00
2022-09-20T15:40:05.617Z,17.91
2022-09-20T15:44:17.356Z,17.85
2022-09-20T15:48:30.682Z,17.67
2022-09-20T15:52:42.451Z,17.60
2022-09-20T15:56:54.100Z,17.62
2022-09-20T16:01:08.041Z,17.45
2022-09-20T16:05:19.867Z,17.43
2022-09-20T16:09:31.470Z,17.47
2022-09-20T16:13:43.069Z,17.51
2022-09-20T16:18:13.382Z,17.41
2022-09-20T16:22:25.033Z,17.38
2022-09-20T16:26:37.652Z,17.25
2022-09-20T16:30:59.503Z,17.15
2022-09-20T16:35:11.247Z,17.10
2022-09-20T16:39:28.812Z,17.03
2022-09-20T16:43:41.277Z,16.97
2022-09-20T16:47:58.063Z,16.93
2022-09-20T16:52:11.016Z,16.88
2022-09-20T16:56:29.567Z,16.79
2022-09-20T17:00:41.195Z,16.68
2022-09-20T17:04:52.829Z,16.50
2022-09-20T17:09:06.210Z,16.39
2022-09-20T17:13:18.171Z,16.16
2022-09-20T17:17:29.719Z,16.02
2022-09-20T17:21:45.172Z,15.91
2022-09-20T17:26:08.017Z,15.74
2022-09-20T17:30:19.680Z,15.57
2022-09-20T17:34:31.694Z,15.43
2022-09-20T17:38:43.311Z,15.43
2022-09-20T17:42:55.296Z,15.31
2022-09-20T17:47:07.354Z,15.14
2022-09-20T17:51:19.977Z,15.12
2022-09-20T17:55:31.606Z,14.95
2022-09-20T17:59:43.269Z,14.80
2022-09-20T18:03:56.682Z,14.65
2022-09-20T18:08:08.493Z,14.45
2022-09-20T18:12:21.564Z,14.30
2022-09-20T18:16:35.175Z,14.28
2022-09-20T18:20:47.320Z,14.20
2022-09-20T18:24:58.954Z,14.05
2022-09-20T18:29:17.889Z,13.99
2022-09-20T18:33:32.499Z,13.87
2022-09-20T18:37:45.654Z,13.76
2022-09-20T18:41:57.356Z,13.70
2022-09-20T18:46:11.602Z,13.59
2022-09-20T18:50:26.475Z,13.50
2022-09-20T18:54:39.078Z,13.45
2022-09-20T18:58:53.771Z,13.35
2022-09-20T19:03:17.882Z,13.24
2022-09-20T19:07:36.238Z,13.20
2022-09-20T19:12:00.737Z,13.09
2022-09-20T19:16:21.057Z,13.04
2022-09-20T19:20:51.719Z,12.96
2022-09-20T19:25:18.617Z,12.99
2022-09-20T19:29:30.766Z,12.91
2022-09-20T19:33:42.524Z,12.92
2022-09-20T19:38:15.506Z,12.87
2022-09-20T19:42:47.605Z,12.81
2022-09-20T19:47:11.266Z,12.74
2022-09-20T19:51:23.601Z,12.60
2022-09-20T19:55:35.490Z,12.57
2022-09-20T19:59:47.938Z,12.46
2022-09-20T20:03:59.754Z,12.47
2022-09-20T20:08:16.300Z,12.36
2022-09-20T20:12:52.847Z,12.33
2022-09-20T20:17:29.296Z,12.33
2022-09-20T20:21:46.979Z,12.23
2022-09-20T20:26:25.422Z,12.15
2022-09-20T20:30:39.542Z,12.14
2022-09-20T20:34:51.107Z,12.16
2022-09-20T20:39:02.728Z,12.15
2022-09-20T20:43:14.266Z,12.12
2022-09-20T20:47:25.796Z,12.14
2022-09-20T20:51:37.492Z,12.18
2022-09-20T20:55:49.018Z,12.26
2022-09-20T21:00:00.790Z,12.29
2022-09-20T21:04:15.212Z,12.42
2022-09-20T21:08:49.632Z,12.43
2022-09-20T21:13:01.501Z,12.48
2022-09-20T21:17:13.011Z,12.51
2022-09-20T21:21:26.723Z,12.54
2022-09-20T21:25:38.280Z,12.56
2022-09-20T21:29:49.865Z,12.51
2022-09-20T21:34:01.969Z,12.60
2022-09-20T21:38:13.522Z,12.68
2022-09-20T21:42:27.184Z,12.66
2022-09-20T21:46:40.800Z,12.73
2022-09-20T21:50:53.126Z,12.74
2022-09-20T21:55:06.986Z,12.73
2022-09-20T21:59:20.367Z,12.78
2022-09-20T22:03:34.204Z,12.85
2022-09-20T22:07:46.060Z,12.86
2022-09-20T22:11:57.758Z,12.88
2022-09-20T22:16:12.674Z,12.92
2022-09-20T22:20:24.782Z,12.92
2022-09-20T22:24:36.565Z,13.02
2022-09-20T22:28:51.940Z,12.98
2022-09-20T22:33:03.728Z,13.03
2022-09-20T22:37:16.467Z,13.00
2022-09-20T22:41:28.404Z,12.88
2022-09-20T22:45:40.082Z,12.85
2022-09-20T22:49:51.791Z,12.84
2022-09-20T22:54:11.899Z,12.77
2022-09-20T22:58:23.551Z,12.69
2022-09-20T23:02:35.256Z,12.58
2022-09-20T23:06:51.889Z,12.54
2022-09-20T23:11:05.280Z,12.43
2022-09-20T23:15:17.371Z,12.36
2022-09-20T23:19:29.073Z,12.26
2022-09-20T23:23:44.152Z,12.22
2022-09-20T23:27:55.787Z,12.06
2022-09-20T23:32:08.027Z,11.94
2022-09-20T23:36:20.669Z,11.85
2022-09-20T23:40:33.801Z,11.85
2022-09-20T23:44:45.560Z,11.76
2022-09-20T23:48:57.286Z,11.73
2022-09-20T23:53:08.972Z,11.76
2022-09-20T23:57:20.617Z,11.67
